Time;durP1;ratioP1;P1;durP2;ratioP2;P2;SDS_P1;SDS_P2;PMS_P1;PMS_P2;Temp;Humidity;BMP_temperature;BMP_pressure;BME280_temperature;BME280_humidity;BME280_pressure;Samples;Min_cycle;Max_cycle;Signal;HPM_P1;HPM_P2
2021/08/11 00:00:28;;;;;;;10.93;9.83;;;18.80;99.90;;;;;;5053776;28;20265;-79
2021/08/11 00:02:53;;;;;;;10.00;9.00;;;18.70;99.90;;;;;;5053903;28;20634;-78
2021/08/11 00:05:19;;;;;;;11.37;9.67;;;18.70;99.90;;;;;;5053613;28;20247;-79
2021/08/11 00:07:45;;;;;;;11.43;10.07;;;18.80;99.90;;;;;;5054206;28;20173;-77
2021/08/11 00:10:11;;;;;;;13.47;10.93;;;18.80;99.90;;;;;;5036505;28;20183;-79
2021/08/11 00:12:38;;;;;;;12.60;11.30;;;18.80;99.90;;;;;;5035758;28;20180;-78
2021/08/11 00:15:04;;;;;;;13.90;11.90;;;18.80;99.90;;;;;;5068056;28;20172;-77
2021/08/11 00:17:29;;;;;;;12.80;10.50;;;18.80;99.90;;;;;;5071552;28;20578;-78
2021/08/11 00:19:55;;;;;;;13.00;9.87;;;18.50;99.90;;;;;;5055326;28;20186;-77
2021/08/11 00:22:22;;;;;;;12.90;10.47;;;18.30;99.90;;;;;;5054370;28;20170;-78
2021/08/11 00:24:49;;;;;;;10.40;9.30;;;18.30;99.90;;;;;;5053405;28;20174;-79
2021/08/11 00:27:14;;;;;;;14.40;10.17;;;18.20;99.90;;;;;;5053444;28;20246;-77
2021/08/11 00:29:40;;;;;;;13.13;10.63;;;18.40;99.90;;;;;;5053218;28;20712;-78
2021/08/11 00:32:06;;;;;;;12.83;10.70;;;18.40;99.90;;;;;;5035621;28;20176;-78
2021/08/11 00:34:31;;;;;;;11.60;10.40;;;18.30;99.90;;;;;;5035850;28;20172;-78
2021/08/11 00:36:57;;;;;;;12.47;10.13;;;18.20;99.90;;;;;;5074378;28;20247;-78
2021/08/11 00:39:23;;;;;;;12.27;9.67;;;18.30;99.90;;;;;;5074611;28;20180;-79
2021/08/11 00:41:49;;;;;;;11.87;10.60;;;18.30;99.90;;;;;;5055615;28;20206;-77
2021/08/11 00:44:15;;;;;;;12.13;10.47;;;18.30;99.90;;;;;;5036549;28;20535;-77
2021/08/11 00:46:42;;;;;;;13.33;10.70;;;18.40;99.90;;;;;;5053300;28;20249;-78
2021/08/11 00:49:11;;;;;;;12.27;10.07;;;18.30;99.90;;;;;;5052958;28;20174;-77
2021/08/11 00:51:39;;;;;;;11.33;10.00;;;18.20;99.90;;;;;;5053191;28;20182;-77
2021/08/11 00:54:05;;;;;;;11.20;10.03;;;18.30;99.90;;;;;;5052864;28;20295;-78
2021/08/11 00:56:33;;;;;;;12.53;10.70;;;18.30;99.90;;;;;;5055297;28;20173;-77
2021/08/11 00:58:59;;;;;;;12.20;10.40;;;18.40;99.90;;;;;;5039091;28;20294;-76
2021/08/11 01:01:26;;;;;;;10.90;9.73;;;18.40;99.90;;;;;;5057334;28;20170;-78
2021/08/11 01:03:55;;;;;;;12.43;11.13;;;18.50;99.90;;;;;;5038630;28;20182;-77
2021/08/11 01:06:22;;;;;;;11.47;10.23;;;18.70;99.90;;;;;;5057851;28;20316;-76
2021/08/11 01:08:47;;;;;;;12.27;10.57;;;18.60;99.90;;;;;;5057000;28;20592;-77
2021/08/11 01:11:13;;;;;;;12.20;10.47;;;18.50;99.90;;;;;;5058116;28;20197;-78
2021/08/11 01:13:42;;;;;;;17.87;13.23;;;18.40;99.90;;;;;;5057438;28;20178;-77
2021/08/11 01:16:08;;;;;;;13.90;11.90;;;18.60;99.90;;;;;;5056700;28;20165;-77
2021/08/11 01:18:34;;;;;;;15.47;13.17;;;18.50;99.90;;;;;;5056351;28;20566;-78
2021/08/11 01:21:06;;;;;;;16.93;13.33;;;18.30;99.90;;;;;;5056702;28;20170;-77
2021/08/11 01:23:46;;;;;;;18.07;12.17;;;18.30;99.90;;;;;;5056800;28;20248;-79
2021/08/11 01:26:31;;;;;;;16.67;13.00;;;18.20;99.90;;;;;;5056448;28;20183;-78
2021/08/11 01:29:10;;;;;;;30.40;12.77;;;18.10;99.90;;;;;;5056567;28;20177;-78
2021/08/11 01:31:47;;;;;;;32.57;13.40;;;18.00;99.90;;;;;;5056231;28;20168;-78
2021/08/11 01:34:43;;;;;;;105.27;17.03;;;18.00;99.90;;;;;;5056387;28;20178;-78
2021/08/11 01:37:16;;;;;;;19.30;13.60;;;18.10;99.90;;;;;;5055466;28;20680;-78
2021/08/11 01:39:47;;;;;;;27.87;13.30;;;18.10;99.90;;;;;;5056458;28;20177;-78
2021/08/11 01:42:19;;;;;;;18.57;12.80;;;17.90;99.90;;;;;;5038359;28;20177;-80
2021/08/11 01:45:03;;;;;;;24.53;11.73;;;17.70;99.90;;;;;;5038309;28;20547;-78
2021/08/11 01:47:36;;;;;;;27.77;11.43;;;17.60;99.90;;;;;;5055944;28;20665;-77
2021/08/11 01:50:02;;;;;;;19.47;10.27;;;17.50;99.90;;;;;;5038505;28;20237;-76
2021/08/11 01:52:28;;;;;;;105.40;14.20;;;17.50;99.90;;;;;;5056131;28;20201;-77
2021/08/11 01:54:54;;;;;;;19.83;12.60;;;17.60;99.90;;;;;;5055996;28;20181;-78
2021/08/11 01:57:20;;;;;;;23.37;12.20;;;17.60;99.90;;;;;;5038586;28;20209;-77
2021/08/11 01:59:47;;;;;;;31.03;12.17;;;17.70;99.90;;;;;;5056849;28;20226;-77
2021/08/11 02:02:17;;;;;;;31.63;11.80;;;17.60;99.90;;;;;;5056874;28;20201;-76
2021/08/11 02:04:43;;;;;;;24.67;12.07;;;17.50;99.90;;;;;;5038816;28;20196;-76
2021/08/11 02:07:10;;;;;;;28.53;12.20;;;17.50;99.90;;;;;;5057046;28;20200;-78
2021/08/11 02:09:37;;;;;;;48.37;13.27;;;17.70;99.90;;;;;;5059590;28;20272;-78
2021/08/11 02:12:04;;;;;;;27.67;13.70;;;17.80;99.90;;;;;;5057348;28;20165;-77
2021/08/11 02:14:30;;;;;;;20.40;13.00;;;17.80;99.90;;;;;;5056697;28;20223;-76
2021/08/11 02:16:56;;;;;;;19.50;13.77;;;17.80;99.90;;;;;;5056176;28;20203;-78
2021/08/11 02:19:21;;;;;;;21.20;14.07;;;17.60;99.90;;;;;;5056173;28;20181;-78
2021/08/11 02:21:47;;;;;;;20.23;14.70;;;17.70;99.90;;;;;;5055668;28;20175;-77
2021/08/11 02:24:13;;;;;;;18.10;14.30;;;17.90;99.90;;;;;;5055606;28;20169;-76
2021/08/11 02:26:48;;;;;;;19.07;15.20;;;17.60;99.90;;;;;;5055219;28;20185;-77
2021/08/11 02:29:40;;;;;;;22.20;14.70;;;17.60;99.90;;;;;;5037321;28;20173;-77
2021/08/11 02:32:31;;;;;;;17.30;13.73;;;17.60;99.90;;;;;;5055443;28;20163;-79
2021/08/11 02:34:57;;;;;;;19.03;13.10;;;17.50;99.90;;;;;;5055369;28;20172;-77
2021/08/11 02:37:32;;;;;;;16.43;12.67;;;17.50;99.90;;;;;;5071326;28;20560;-76
2021/08/11 02:40:15;;;;;;;18.23;12.90;;;17.30;99.90;;;;;;5072818;28;20179;-81
2021/08/11 02:42:45;;;;;;;18.70;12.80;;;17.20;99.90;;;;;;5038194;28;20177;-79
2021/08/11 02:45:16;;;;;;;17.00;13.20;;;17.10;99.90;;;;;;5055306;28;20188;-79
2021/08/11 02:47:44;;;;;;;21.00;17.50;;;17.10;99.90;;;;;;5055114;28;20222;-78
2021/08/11 02:50:13;;;;;;;17.97;13.30;;;17.00;99.90;;;;;;5055221;28;20162;-79
2021/08/11 02:52:39;;;;;;;16.80;13.30;;;17.00;99.90;;;;;;5054958;28;20293;-78
2021/08/11 02:55:07;;;;;;;16.43;13.03;;;17.10;99.90;;;;;;5054853;28;20295;-78
2021/08/11 02:57:34;;;;;;;13.80;12.33;;;17.10;99.90;;;;;;5054945;28;20284;-78
2021/08/11 03:00:00;;;;;;;14.60;12.63;;;17.20;99.90;;;;;;5054986;28;20552;-78
2021/08/11 03:02:27;;;;;;;16.10;11.83;;;17.10;99.90;;;;;;5063383;28;20165;-77
2021/08/11 03:04:53;;;;;;;18.40;13.17;;;17.10;99.90;;;;;;5076769;28;20135;-77
2021/08/11 03:07:19;;;;;;;15.83;13.40;;;17.00;99.90;;;;;;5073270;28;20219;-77
2021/08/11 03:09:46;;;;;;;16.53;12.60;;;17.00;99.90;;;;;;5056306;28;20664;-78
2021/08/11 03:12:12;;;;;;;15.30;13.00;;;16.80;99.90;;;;;;5055156;28;20172;-78
2021/08/11 03:14:43;;;;;;;15.50;13.17;;;16.70;99.90;;;;;;5054911;28;20176;-78
2021/08/11 03:17:13;;;;;;;14.23;12.43;;;16.70;99.90;;;;;;5054900;28;20197;-77
2021/08/11 03:19:40;;;;;;;15.73;12.23;;;16.60;99.90;;;;;;5071912;28;20194;-78
2021/08/11 03:22:07;;;;;;;19.50;13.37;;;16.60;99.90;;;;;;5072556;28;20174;-78
2021/08/11 03:24:33;;;;;;;19.43;11.63;;;16.60;99.90;;;;;;5041672;28;20186;-78
2021/08/11 03:26:59;;;;;;;22.93;12.53;;;16.50;99.90;;;;;;5038275;28;20197;-76
2021/08/11 03:29:27;;;;;;;14.63;12.20;;;16.50;99.90;;;;;;5055253;28;20676;-77
2021/08/11 03:31:53;;;;;;;25.10;11.93;;;16.60;99.90;;;;;;5054444;28;20191;-77
2021/08/11 03:34:19;;;;;;;20.37;11.67;;;16.60;99.90;;;;;;5054228;28;20633;-78
2021/08/11 03:36:44;;;;;;;23.83;13.20;;;16.70;99.90;;;;;;5054421;28;20183;-77
2021/08/11 03:39:10;;;;;;;30.07;14.23;;;16.80;99.90;;;;;;5038756;28;20632;-77
2021/08/11 03:41:36;;;;;;;19.47;14.13;;;16.70;99.90;;;;;;5061155;28;20197;-77
2021/08/11 03:44:01;;;;;;;18.03;14.70;;;16.80;99.90;;;;;;5074716;28;20183;-78
2021/08/11 03:46:27;;;;;;;15.60;13.40;;;16.70;99.90;;;;;;5059186;28;20184;-78
2021/08/11 03:48:53;;;;;;;16.87;12.87;;;16.60;99.90;;;;;;5056831;28;20162;-80
2021/08/11 03:51:20;;;;;;;15.73;12.70;;;16.50;99.90;;;;;;5054520;28;20192;-78
2021/08/11 03:53:46;;;;;;;19.67;13.23;;;16.60;99.90;;;;;;5055485;28;20640;-79
2021/08/11 03:56:12;;;;;;;15.73;14.03;;;16.40;99.90;;;;;;5053871;28;20188;-79
2021/08/11 03:58:37;;;;;;;16.10;13.50;;;16.30;99.90;;;;;;5053679;28;20297;-77
2021/08/11 04:01:03;;;;;;;19.00;14.67;;;16.30;99.90;;;;;;5053677;28;20176;-78
2021/08/11 04:03:29;;;;;;;20.83;14.63;;;16.60;99.90;;;;;;5053712;28;20176;-77
2021/08/11 04:05:54;;;;;;;19.17;14.80;;;16.50;99.90;;;;;;5053736;28;20169;-77
2021/08/11 04:08:20;;;;;;;21.50;14.77;;;16.50;99.90;;;;;;5035750;28;20184;-77
2021/08/11 04:10:46;;;;;;;22.20;15.30;;;16.50;99.90;;;;;;5053422;28;20166;-77
2021/08/11 04:13:15;;;;;;;18.37;14.63;;;16.30;99.90;;;;;;5053993;28;20227;-78
2021/08/11 04:15:42;;;;;;;19.83;13.70;;;16.30;99.90;;;;;;5053797;28;20157;-78
2021/08/11 04:18:07;;;;;;;19.73;13.57;;;16.20;99.90;;;;;;5053968;28;20251;-77
2021/08/11 04:20:33;;;;;;;18.77;13.07;;;16.10;99.90;;;;;;5036469;28;20174;-77
2021/08/11 04:22:59;;;;;;;14.50;12.37;;;16.00;99.90;;;;;;5053383;28;20177;-77
2021/08/11 04:25:24;;;;;;;17.23;12.40;;;16.00;99.90;;;;;;5052972;28;20566;-79
2021/08/11 04:27:50;;;;;;;15.67;13.40;;;16.00;99.90;;;;;;5035443;28;20177;-79
2021/08/11 04:30:15;;;;;;;16.30;12.10;;;15.90;99.90;;;;;;5052347;28;20180;-78
2021/08/11 04:32:41;;;;;;;15.43;12.67;;;16.00;99.90;;;;;;5053233;28;20537;-77
2021/08/11 04:35:08;;;;;;;14.90;12.83;;;16.20;99.90;;;;;;5053026;28;20633;-77
2021/08/11 04:37:51;;;;;;;15.57;13.43;;;16.30;99.90;;;;;;5053076;28;20279;-79
2021/08/11 04:40:17;;;;;;;16.47;12.93;;;16.30;99.90;;;;;;5052851;28;20207;-78
2021/08/11 04:42:43;;;;;;;15.50;12.40;;;16.30;99.90;;;;;;5053142;28;20196;-78
2021/08/11 04:45:09;;;;;;;14.57;11.97;;;16.30;99.90;;;;;;5052754;28;20184;-80
2021/08/11 04:47:34;;;;;;;13.63;11.30;;;16.20;99.90;;;;;;5053141;28;20651;-77
2021/08/11 04:50:01;;;;;;;12.97;11.43;;;16.20;99.90;;;;;;5053008;28;20157;-77
2021/08/11 04:52:26;;;;;;;12.37;10.80;;;16.40;99.90;;;;;;5053021;28;20281;-82
2021/08/11 04:54:52;;;;;;;13.23;11.80;;;16.30;99.90;;;;;;5052819;28;20700;-76
2021/08/11 04:57:18;;;;;;;14.97;11.27;;;16.40;99.90;;;;;;5052930;28;20186;-77
2021/08/11 04:59:43;;;;;;;14.13;10.93;;;16.40;99.90;;;;;;5053062;28;20173;-78
2021/08/11 05:02:09;;;;;;;14.90;11.63;;;16.30;99.90;;;;;;5053089;28;20165;-77
2021/08/11 05:04:35;;;;;;;15.47;11.70;;;16.20;99.90;;;;;;5052621;28;20643;-77
2021/08/11 05:07:03;;;;;;;13.70;10.77;;;16.20;99.90;;;;;;5053191;28;20161;-78
2021/08/11 05:09:31;;;;;;;12.90;11.33;;;16.20;99.90;;;;;;5052712;28;20169;-79
2021/08/11 05:11:56;;;;;;;19.47;11.77;;;16.30;99.90;;;;;;5053024;28;20173;-80
2021/08/11 05:14:22;;;;;;;13.93;11.10;;;16.20;99.90;;;;;;5052848;28;20176;-77
2021/08/11 05:16:47;;;;;;;15.43;11.70;;;16.20;99.90;;;;;;5052899;28;20165;-77
2021/08/11 05:19:13;;;;;;;17.33;11.80;;;16.40;99.90;;;;;;5052874;28;20690;-77
2021/08/11 05:21:39;;;;;;;15.93;11.13;;;16.30;99.90;;;;;;5034870;28;20178;-78
2021/08/11 05:24:04;;;;;;;14.60;11.13;;;16.40;99.90;;;;;;5052366;28;20168;-78
2021/08/11 05:26:30;;;;;;;16.60;10.93;;;16.40;99.90;;;;;;5052498;28;20641;-78
2021/08/11 05:28:56;;;;;;;14.93;10.87;;;16.40;99.90;;;;;;5052559;28;20173;-80
2021/08/11 05:31:21;;;;;;;13.73;11.07;;;16.40;99.90;;;;;;5052681;28;20653;-77
2021/08/11 05:33:47;;;;;;;17.17;11.17;;;16.40;99.90;;;;;;5052654;28;20169;-77
2021/08/11 05:36:13;;;;;;;15.93;12.03;;;16.40;99.90;;;;;;5053054;28;20230;-78
2021/08/11 05:38:38;;;;;;;15.17;10.80;;;16.30;99.90;;;;;;5052424;28;20704;-78
2021/08/11 05:41:04;;;;;;;14.47;9.73;;;16.40;99.90;;;;;;5052584;28;20630;-77
2021/08/11 05:43:30;;;;;;;16.80;10.47;;;16.40;99.90;;;;;;5054871;28;20174;-78
2021/08/11 05:45:56;;;;;;;14.13;10.37;;;16.50;99.90;;;;;;5038092;28;20701;-78
2021/08/11 05:48:24;;;;;;;19.50;11.37;;;16.40;99.90;;;;;;5056082;28;20165;-81
2021/08/11 05:50:50;;;;;;;13.63;11.07;;;16.50;99.90;;;;;;5054994;28;20177;-77
2021/08/11 05:53:16;;;;;;;14.90;10.13;;;16.60;99.90;;;;;;5062896;28;20172;-78
2021/08/11 05:55:42;;;;;;;16.83;9.70;;;16.70;99.90;;;;;;5063409;28;20633;-77
2021/08/11 05:58:11;;;;;;;15.53;10.70;;;16.70;99.90;;;;;;5062461;28;20205;-78
2021/08/11 06:00:38;;;;;;;16.07;10.80;;;16.80;99.90;;;;;;5058949;28;20672;-77
2021/08/11 06:03:04;;;;;;;15.90;10.80;;;16.70;99.90;;;;;;5059857;28;20177;-78
2021/08/11 06:05:30;;;;;;;15.27;11.10;;;16.70;99.90;;;;;;5061007;28;20184;-76
2021/08/11 06:07:55;;;;;;;16.97;11.00;;;16.70;99.90;;;;;;5061334;28;20518;-76
2021/08/11 06:10:21;;;;;;;15.87;10.77;;;16.80;99.90;;;;;;5059977;28;20165;-79
2021/08/11 06:12:51;;;;;;;13.97;10.00;;;16.80;99.90;;;;;;5055989;28;20261;-78
2021/08/11 06:15:17;;;;;;;15.97;10.83;;;16.80;99.90;;;;;;5056062;28;20210;-79
2021/08/11 06:17:44;;;;;;;15.47;11.07;;;16.80;99.90;;;;;;5056587;28;20205;-80
2021/08/11 06:20:10;;;;;;;13.90;10.30;;;16.80;99.90;;;;;;5072588;28;20223;-77
2021/08/11 06:22:36;;;;;;;14.37;10.07;;;16.80;99.90;;;;;;5076512;28;20195;-77
2021/08/11 06:25:03;;;;;;;11.77;9.50;;;17.10;99.90;;;;;;5078511;28;20162;-76
2021/08/11 06:27:29;;;;;;;16.50;10.37;;;17.10;99.90;;;;;;5073313;28;20197;-77
2021/08/11 06:29:54;;;;;;;16.23;11.33;;;17.00;99.90;;;;;;5039613;28;20209;-77
2021/08/11 06:32:20;;;;;;;16.03;11.10;;;17.10;99.90;;;;;;5057242;28;20169;-78
2021/08/11 06:34:46;;;;;;;15.23;10.40;;;16.90;99.90;;;;;;5060164;28;20162;-78
2021/08/11 06:37:11;;;;;;;13.57;10.33;;;16.80;99.90;;;;;;5067435;28;20225;-77
2021/08/11 06:39:37;;;;;;;17.80;10.10;;;16.80;99.90;;;;;;5071866;28;20530;-78
2021/08/11 06:42:03;;;;;;;13.40;10.13;;;17.00;99.90;;;;;;5067750;28;20668;-78
2021/08/11 06:44:29;;;;;;;13.83;9.97;;;17.10;99.90;;;;;;5060138;28;20281;-78
2021/08/11 06:46:54;;;;;;;13.73;10.40;;;17.30;99.90;;;;;;5055205;28;20173;-77
2021/08/11 06:49:20;;;;;;;13.43;9.93;;;17.40;99.90;;;;;;5040251;28;20522;-76
2021/08/11 06:51:46;;;;;;;15.03;9.33;;;17.50;99.90;;;;;;5075251;28;20161;-77
2021/08/11 06:54:12;;;;;;;15.33;9.93;;;17.60;99.90;;;;;;5077332;28;20161;-78
2021/08/11 06:56:39;;;;;;;12.70;9.00;;;17.80;99.90;;;;;;5057313;28;20248;-78
2021/08/11 06:59:05;;;;;;;13.90;9.03;;;17.60;99.90;;;;;;5054840;28;20569;-77
2021/08/11 07:01:31;;;;;;;14.37;9.17;;;17.70;99.90;;;;;;5055721;28;20685;-78
2021/08/11 07:03:57;;;;;;;14.30;9.03;;;17.80;99.90;;;;;;5055058;28;20260;-79
2021/08/11 07:06:22;;;;;;;11.27;9.00;;;17.80;99.90;;;;;;5054740;28;20645;-81
2021/08/11 07:08:48;;;;;;;14.33;9.23;;;17.80;99.90;;;;;;5054862;28;20174;-79
2021/08/11 07:11:14;;;;;;;13.63;8.83;;;17.80;99.90;;;;;;5056528;28;20173;-78
2021/08/11 07:13:39;;;;;;;13.30;8.70;;;18.00;99.80;;;;;;5055255;28;20184;-80
2021/08/11 07:16:05;;;;;;;9.37;7.43;;;18.10;99.90;;;;;;5054921;28;20165;-78
2021/08/11 07:18:31;;;;;;;9.97;7.40;;;18.10;99.60;;;;;;5055259;28;20201;-79
2021/08/11 07:20:58;;;;;;;9.43;7.03;;;18.00;98.90;;;;;;5054302;28;20660;-81
2021/08/11 07:23:24;;;;;;;11.77;6.53;;;18.00;99.00;;;;;;5054270;28;20165;-83
2021/08/11 07:25:50;;;;;;;10.23;5.40;;;18.10;98.50;;;;;;5054606;28;20196;-76
2021/08/11 07:28:16;;;;;;;11.13;5.90;;;18.30;96.60;;;;;;5054333;28;20261;-80
2021/08/11 07:30:43;;;;;;;8.63;5.30;;;18.30;95.70;;;;;;5054194;28;20166;-76
2021/08/11 07:33:09;;;;;;;9.07;5.20;;;18.40;96.20;;;;;;5054489;28;20169;-79
2021/08/11 07:35:36;;;;;;;9.63;5.60;;;18.30;93.60;;;;;;5057356;28;20179;-82
2021/08/11 07:38:03;;;;;;;7.63;5.30;;;18.60;92.90;;;;;;5061590;28;20240;-82
2021/08/11 07:40:29;;;;;;;9.83;5.80;;;18.50;91.90;;;;;;5054248;28;20169;-82
2021/08/11 07:42:56;;;;;;;9.67;5.60;;;18.50;93.30;;;;;;5053904;28;20165;-78
2021/08/11 07:45:22;;;;;;;9.43;4.80;;;18.50;93.20;;;;;;5053639;28;20188;-79
2021/08/11 07:47:52;;;;;;;7.97;5.07;;;18.50;92.90;;;;;;5035950;28;20571;-79
2021/08/11 07:50:18;;;;;;;7.70;4.30;;;18.60;92.50;;;;;;5053579;28;20176;-78
2021/08/11 07:52:45;;;;;;;9.90;4.17;;;18.60;91.80;;;;;;5052605;28;20651;-78
2021/08/11 07:55:11;;;;;;;9.17;4.90;;;18.70;91.60;;;;;;5054121;28;20170;-79
2021/08/11 07:57:37;;;;;;;6.03;4.40;;;18.80;90.30;;;;;;5054144;28;20205;-82
2021/08/11 08:00:05;;;;;;;6.50;3.83;;;18.90;82.70;;;;;;5053941;28;20211;-78
2021/08/11 08:02:31;;;;;;;7.37;4.60;;;19.10;79.80;;;;;;5053476;28;20173;-82
2021/08/11 08:04:56;;;;;;;6.37;4.30;;;19.20;82.90;;;;;;5053029;28;20165;-78
2021/08/11 08:07:22;;;;;;;7.50;4.27;;;19.40;82.90;;;;;;5053539;28;20162;-78
2021/08/11 08:09:49;;;;;;;10.57;4.50;;;19.50;82.20;;;;;;5052624;28;20204;-79
2021/08/11 08:12:14;;;;;;;6.27;3.70;;;19.60;80.00;;;;;;5053540;28;20170;-78
2021/08/11 08:14:40;;;;;;;7.23;3.10;;;19.60;76.10;;;;;;5053448;28;20182;-79
2021/08/11 08:17:05;;;;;;;7.40;3.47;;;19.60;72.30;;;;;;5053156;28;20202;-79
2021/08/11 08:19:31;;;;;;;7.10;4.23;;;19.70;70.90;;;;;;5053915;28;20173;-78
2021/08/11 08:21:57;;;;;;;5.83;2.97;;;19.80;70.30;;;;;;5053587;28;20175;-76
2021/08/11 08:24:22;;;;;;;4.90;2.80;;;19.80;58.40;;;;;;5052913;28;20181;-78
2021/08/11 08:26:48;;;;;;;8.40;3.83;;;19.90;54.50;;;;;;5053091;28;20188;-79
2021/08/11 08:29:14;;;;;;;5.40;3.03;;;20.00;54.30;;;;;;5054105;28;20655;-77
2021/08/11 08:31:40;;;;;;;7.07;3.93;;;20.00;60.20;;;;;;5054031;28;20176;-78
2021/08/11 08:34:05;;;;;;;8.17;4.07;;;20.30;64.60;;;;;;5053529;28;20180;-79
2021/08/11 08:36:32;;;;;;;8.27;3.73;;;20.20;66.00;;;;;;5054218;28;20253;-78
2021/08/11 08:38:58;;;;;;;4.07;2.53;;;20.30;60.70;;;;;;5037295;28;20209;-80
2021/08/11 08:41:23;;;;;;;7.80;3.80;;;20.20;50.30;;;;;;5055515;28;20167;-80
2021/08/11 08:43:49;;;;;;;7.27;3.73;;;20.20;52.60;;;;;;5056075;28;20181;-78
2021/08/11 08:46:16;;;;;;;4.37;3.40;;;19.90;58.10;;;;;;5054735;28;20268;-82
2021/08/11 08:48:42;;;;;;;5.63;3.60;;;20.00;54.70;;;;;;5036963;28;20535;-79
2021/08/11 08:51:12;;;;;;;4.50;3.30;;;20.00;57.90;;;;;;5054610;28;20255;-77
2021/08/11 08:53:44;;;;;;;3.63;2.87;;;19.80;54.70;;;;;;5054229;28;20174;-79
2021/08/11 08:56:11;;;;;;;8.73;3.93;;;19.80;51.50;;;;;;5035211;28;20183;-78
2021/08/11 08:58:42;;;;;;;5.33;2.97;;;20.00;56.60;;;;;;5053358;28;20273;-79
2021/08/11 09:01:08;;;;;;;8.50;3.00;;;20.10;53.00;;;;;;5034623;28;20624;-79
2021/08/11 09:03:33;;;;;;;6.50;3.20;;;20.30;50.50;;;;;;5052892;28;20227;-81
2021/08/11 09:06:00;;;;;;;10.23;4.03;;;20.50;47.40;;;;;;5052729;28;20184;-79
2021/08/11 09:08:26;;;;;;;5.03;3.27;;;20.70;50.50;;;;;;5053234;28;20624;-81
2021/08/11 09:10:52;;;;;;;6.40;2.90;;;20.80;38.60;;;;;;5053033;28;20178;-81
2021/08/11 09:13:23;;;;;;;7.10;3.40;;;21.00;40.00;;;;;;5051839;28;20176;-79
2021/08/11 09:16:04;;;;;;;6.73;3.13;;;20.90;42.00;;;;;;5052763;28;20500;-79
2021/08/11 09:18:30;;;;;;;5.33;2.90;;;21.10;41.90;;;;;;5057909;28;20204;-78
2021/08/11 09:20:59;;;;;;;7.47;3.33;;;21.00;39.70;;;;;;5057749;28;20188;-77
2021/08/11 09:23:42;;;;;;;5.57;2.87;;;21.10;39.30;;;;;;5063214;28;20161;-78
2021/08/11 09:26:10;;;;;;;6.97;3.10;;;21.20;42.00;;;;;;5063929;28;20184;-78
2021/08/11 09:28:41;;;;;;;4.83;3.07;;;21.30;39.40;;;;;;5058022;28;20178;-80
2021/08/11 09:31:24;;;;;;;7.30;3.07;;;21.30;40.60;;;;;;5059142;28;20173;-78
2021/08/11 09:33:52;;;;;;;7.13;3.90;;;21.20;40.90;;;;;;5056935;28;20166;-79
2021/08/11 09:36:18;;;;;;;5.80;3.57;;;20.90;45.70;;;;;;5057470;28;20172;-82
2021/08/11 09:39:03;;;;;;;7.10;3.53;;;20.80;47.60;;;;;;5058102;28;20243;-81
2021/08/11 09:41:31;;;;;;;7.47;4.10;;;20.70;54.20;;;;;;5058355;28;20229;-79
2021/08/11 09:44:11;;;;;;;6.07;3.63;;;20.60;57.10;;;;;;5058486;28;20170;-79
2021/08/11 09:46:39;;;;;;;7.60;3.30;;;20.80;56.40;;;;;;5070056;28;20263;-81
2021/08/11 09:49:18;;;;;;;6.77;4.10;;;20.70;58.10;;;;;;5075867;28;20169;-81
2021/08/11 09:52:13;;;;;;;6.77;3.47;;;20.80;56.90;;;;;;5058963;28;20650;-82
2021/08/11 09:54:39;;;;;;;4.47;3.30;;;20.90;50.60;;;;;;5036133;28;20191;-82
2021/08/11 09:57:29;;;;;;;7.50;3.67;;;20.90;54.70;;;;;;5056809;28;20193;-82
2021/08/11 09:59:57;;;;;;;6.70;3.57;;;21.10;51.40;;;;;;5055609;28;20329;-81
2021/08/11 10:02:22;;;;;;;6.03;3.10;;;21.00;53.90;;;;;;5056244;28;20180;-80
2021/08/11 10:04:51;;;;;;;6.30;3.20;;;21.10;55.00;;;;;;5054800;28;20173;-78
2021/08/11 10:07:17;;;;;;;7.20;3.50;;;21.20;53.30;;;;;;5056569;28;20177;-82
2021/08/11 10:09:59;;;;;;;5.67;3.10;;;21.30;50.20;;;;;;5055473;28;20574;-80
2021/08/11 10:12:29;;;;;;;7.17;3.73;;;21.30;49.30;;;;;;5056644;28;20267;-81
2021/08/11 10:14:57;;;;;;;6.20;2.93;;;21.40;48.30;;;;;;5065039;28;20167;-78
2021/08/11 10:17:28;;;;;;;6.47;3.10;;;21.60;45.20;;;;;;5077551;28;20182;-79
2021/08/11 10:19:53;;;;;;;5.60;3.00;;;21.90;37.70;;;;;;5069230;28;20489;-81
2021/08/11 10:22:21;;;;;;;5.83;3.07;;;22.10;36.70;;;;;;5058479;28;20213;-79
2021/08/11 10:24:51;;;;;;;6.20;3.03;;;22.10;38.20;;;;;;5056435;28;20166;-80
2021/08/11 10:27:18;;;;;;;4.97;3.17;;;22.20;38.20;;;;;;5055880;28;20190;-82
2021/08/11 10:29:45;;;;;;;4.63;3.17;;;22.10;37.80;;;;;;5054545;28;20180;-80
2021/08/11 10:32:11;;;;;;;5.43;3.10;;;22.00;39.00;;;;;;5055848;28;20175;-79
2021/08/11 10:34:38;;;;;;;7.03;3.13;;;21.90;41.50;;;;;;5055707;28;20196;-80
2021/08/11 10:37:05;;;;;;;5.80;3.00;;;21.50;40.20;;;;;;5055179;28;20188;-84
2021/08/11 10:39:31;;;;;;;5.20;2.97;;;21.10;44.20;;;;;;5039034;28;20253;-80
2021/08/11 10:42:02;;;;;;;7.40;3.40;;;20.80;52.40;;;;;;5055509;28;20177;-83
2021/08/11 10:44:29;;;;;;;3.77;2.80;;;20.70;52.40;;;;;;5055037;28;20198;-82
2021/08/11 10:47:01;;;;;;;6.47;3.80;;;20.70;52.20;;;;;;5055240;28;20167;-81
2021/08/11 10:49:28;;;;;;;6.43;3.57;;;20.70;56.90;;;;;;5055592;28;20280;-81
2021/08/11 10:52:04;;;;;;;6.93;3.63;;;20.90;53.90;;;;;;5054993;28;20702;-82
2021/08/11 10:54:48;;;;;;;8.30;3.60;;;21.10;53.60;;;;;;5055129;28;20665;-79
2021/08/11 10:57:34;;;;;;;6.63;3.73;;;21.40;50.70;;;;;;5054922;28;20511;-82
2021/08/11 11:00:21;;;;;;;5.30;3.90;;;21.50;48.90;;;;;;5054992;28;20259;-83
2021/08/11 11:02:49;;;;;;;4.87;3.37;;;21.70;45.40;;;;;;5054780;28;20161;-80
2021/08/11 11:05:26;;;;;;;6.17;4.07;;;21.60;45.90;;;;;;5055162;28;20165;-80
2021/08/11 11:08:10;;;;;;;4.10;3.00;;;21.50;49.40;;;;;;5055595;28;20166;-81
2021/08/11 11:10:38;;;;;;;4.60;3.47;;;21.50;47.20;;;;;;5058898;28;20193;-80
2021/08/11 11:13:43;;;;;;;6.90;3.53;;;21.40;49.40;;;;;;5059742;28;20171;-79
2021/08/11 11:16:09;;;;;;;6.07;3.47;;;21.70;49.70;;;;;;5039078;28;20172;-82
2021/08/11 11:18:35;;;;;;;6.27;3.70;;;21.80;48.30;;;;;;5055933;28;20705;-82
2021/08/11 11:21:01;;;;;;;6.70;4.17;;;21.80;43.60;;;;;;5054688;28;20215;-80
2021/08/11 11:23:36;;;;;;;7.73;4.30;;;21.70;41.20;;;;;;5055238;28;20481;-79
2021/08/11 11:26:12;;;;;;;5.93;3.73;;;21.70;46.90;;;;;;5054415;28;20190;-81
2021/08/11 11:28:57;;;;;;;5.80;4.20;;;21.90;43.00;;;;;;5054852;28;20234;-82
2021/08/11 11:31:42;;;;;;;8.00;4.00;;;22.00;38.60;;;;;;5054445;28;20165;-80
2021/08/11 11:34:24;;;;;;;5.30;3.70;;;22.10;42.50;;;;;;5054453;28;20169;-80
2021/08/11 11:36:56;;;;;;;6.53;3.60;;;22.00;39.50;;;;;;5054741;28;20174;-82
2021/08/11 11:39:30;;;;;;;5.70;4.00;;;21.90;41.50;;;;;;5060714;28;20218;-82
2021/08/11 11:42:22;;;;;;;6.60;3.60;;;21.90;43.10;;;;;;5057033;28;20234;-83
2021/08/11 11:44:59;;;;;;;7.07;3.50;;;22.00;41.00;;;;;;5054028;28;20177;-80
2021/08/11 11:47:44;;;;;;;5.47;3.50;;;22.10;34.30;;;;;;5054020;28;20162;-80
2021/08/11 11:50:32;;;;;;;5.20;3.20;;;22.20;28.80;;;;;;5053853;28;20184;-79
2021/08/11 11:53:03;;;;;;;5.17;3.10;;;22.00;25.60;;;;;;5054031;28;20172;-81
2021/08/11 11:55:41;;;;;;;5.00;3.10;;;21.90;20.90;;;;;;5054173;28;20597;-80
2021/08/11 11:58:09;;;;;;;7.33;3.70;;;22.00;18.20;;;;;;5053726;28;20208;-79
2021/08/11 12:00:36;;;;;;;5.33;3.37;;;21.80;5.50;;;;;;5053795;28;20201;-79
2021/08/11 12:03:02;;;;;;;5.70;3.30;;;21.80;16.00;;;;;;5053591;28;20161;-82
2021/08/11 12:05:28;;;;;;;4.43;3.27;;;21.80;1.00;;;;;;5053873;28;20641;-82
2021/08/11 12:07:54;;;;;;;6.17;3.33;;;21.80;3.50;;;;;;5053850;28;20165;-82
2021/08/11 12:10:25;;;;;;;5.30;3.30;;;22.00;3.60;;;;;;5053158;28;20169;-79
2021/08/11 12:13:04;;;;;;;4.77;3.20;;;22.40;3.00;;;;;;5053413;28;20258;-82
2021/08/11 12:15:35;;;;;;;4.83;2.80;;;22.50;1.00;;;;;;5053635;28;20191;-83
2021/08/11 12:18:23;;;;;;;6.67;3.77;;;22.60;1.00;;;;;;5053771;28;20280;-83
2021/08/11 12:20:50;;;;;;;9.73;5.50;;;22.60;1.00;;;;;;5054186;28;20182;-82
2021/08/11 12:23:24;;;;;;;10.20;6.57;;;22.70;1.00;;;;;;5054216;28;20173;-79
2021/08/11 12:25:54;;;;;;;9.07;5.53;;;22.90;1.00;;;;;;5034821;28;20682;-79
2021/08/11 12:28:25;;;;;;;7.93;5.17;;;23.10;1.00;;;;;;5053396;28;20627;-80
2021/08/11 12:30:55;;;;;;;6.07;3.30;;;23.10;1.00;;;;;;5054092;28;20175;-79
2021/08/11 12:33:23;;;;;;;7.87;3.43;;;23.10;1.00;;;;;;5064910;28;20179;-79
2021/08/11 12:35:51;;;;;;;5.00;3.10;;;23.20;1.00;;;;;;5074373;28;20226;-81
2021/08/11 12:38:27;;;;;;;5.97;3.50;;;23.30;1.00;;;;;;5055022;28;20541;-84
2021/08/11 12:40:53;;;;;;;7.73;3.77;;;23.20;1.00;;;;;;5036560;28;20177;-80
2021/08/11 12:43:21;;;;;;;8.30;3.40;;;23.10;1.00;;;;;;5053469;28;20190;-81